createdAt,value
2022-10-10T00:00:20.313Z,10.60
2022-10-10T00:02:48.462Z,10.80
2022-10-10T00:05:17.598Z,10.73
2022-10-10T00:07:45.483Z,11.13
2022-10-10T00:10:12.986Z,11.40
2022-10-10T00:12:40.450Z,11.53
2022-10-10T00:15:09.206Z,11.63
2022-10-10T00:17:36.641Z,11.00
2022-10-10T00:20:04.964Z,11.10
2022-10-10T00:22:33.980Z,11.27
2022-10-10T00:25:01.622Z,12.10
2022-10-10T00:27:29.087Z,11.20
2022-10-10T00:29:56.855Z,11.50
2022-10-10T00:32:24.276Z,11.33
2022-10-10T00:34:51.854Z,11.60
2022-10-10T00:37:19.325Z,11.40
2022-10-10T00:39:48.210Z,11.90
2022-10-10T00:42:17.529Z,11.03
2022-10-10T00:44:46.780Z,11.47
2022-10-10T00:47:14.317Z,11.80
2022-10-10T00:49:44.339Z,12.17
2022-10-10T00:52:12.723Z,12.00
2022-10-10T00:54:40.578Z,11.93
2022-10-10T00:57:11.470Z,12.07
2022-10-10T00:59:40.358Z,12.23
2022-10-10T01:02:07.877Z,12.40
2022-10-10T01:04:39.565Z,12.00
2022-10-10T01:07:12.786Z,12.67
2022-10-10T01:09:41.709Z,12.50
2022-10-10T01:12:19.141Z,12.63
2022-10-10T01:14:50.290Z,12.47
2022-10-10T01:17:21.911Z,12.53
2022-10-10T01:20:27.961Z,12.30
2022-10-10T01:23:08.000Z,12.67
2022-10-10T01:25:43.972Z,12.50
2022-10-10T01:28:21.747Z,12.70
2022-10-10T01:30:49.862Z,12.63
2022-10-10T01:33:19.350Z,12.33
2022-10-10T01:35:51.960Z,12.33
2022-10-10T01:38:26.372Z,12.97
2022-10-10T01:40:57.819Z,12.60
2022-10-10T01:43:27.070Z,12.80
2022-10-10T01:45:55.168Z,12.70
2022-10-10T01:48:33.602Z,13.10
2022-10-10T01:51:14.089Z,12.97
2022-10-10T01:53:44.615Z,12.50
2022-10-10T01:56:17.839Z,13.00
2022-10-10T01:58:59.614Z,12.57
2022-10-10T02:01:30.435Z,12.60
2022-10-10T02:04:03.512Z,12.80
2022-10-10T02:06:35.057Z,13.10
2022-10-10T02:09:05.871Z,13.30
2022-10-10T02:11:34.431Z,13.13
2022-10-10T02:14:06.290Z,12.60
2022-10-10T02:16:36.314Z,13.13
2022-10-10T02:19:07.023Z,12.73
2022-10-10T02:21:35.165Z,12.70
2022-10-10T02:24:04.972Z,12.00
2022-10-10T02:26:32.969Z,12.30
2022-10-10T02:29:04.549Z,13.00
2022-10-10T02:31:35.322Z,12.60
2022-10-10T02:34:07.250Z,13.43
2022-10-10T02:36:35.465Z,12.80
2022-10-10T02:39:04.005Z,13.17
2022-10-10T02:41:32.266Z,13.40
2022-10-10T02:43:59.761Z,13.80
2022-10-10T02:46:28.502Z,13.73
2022-10-10T02:48:55.910Z,13.30
2022-10-10T02:51:24.929Z,13.27
2022-10-10T02:53:54.897Z,13.57
2022-10-10T02:56:22.273Z,13.97
2022-10-10T02:58:49.672Z,13.17
2022-10-10T03:01:17.172Z,13.23
2022-10-10T03:03:45.923Z,13.83
2022-10-10T03:06:13.330Z,13.00
2022-10-10T03:08:40.733Z,13.27
2022-10-10T03:11:08.710Z,13.10
2022-10-10T03:13:36.106Z,13.80
2022-10-10T03:16:04.326Z,13.60
2022-10-10T03:18:31.903Z,13.60
2022-10-10T03:21:00.733Z,13.43
2022-10-10T03:23:28.233Z,13.93
2022-10-10T03:25:55.662Z,13.50
2022-10-10T03:28:23.132Z,13.70
2022-10-10T03:30:50.836Z,13.77
2022-10-10T03:33:18.246Z,13.63
2022-10-10T03:35:45.670Z,14.00
2022-10-10T03:38:15.189Z,13.57
2022-10-10T03:40:43.976Z,13.40
2022-10-10T03:43:12.841Z,13.20
2022-10-10T03:45:42.763Z,13.10
2022-10-10T03:48:10.373Z,13.40
2022-10-10T03:50:37.778Z,13.43
2022-10-10T03:53:05.291Z,13.43
2022-10-10T03:55:34.166Z,13.60
2022-10-10T03:58:01.585Z,12.90
2022-10-10T04:00:29.051Z,13.30
2022-10-10T04:02:56.486Z,13.43
2022-10-10T04:05:23.907Z,12.90
2022-10-10T04:07:51.278Z,13.57
2022-10-10T04:10:18.735Z,13.57
2022-10-10T04:12:47.640Z,13.50
2022-10-10T04:15:15.341Z,13.63
2022-10-10T04:17:42.744Z,13.70
2022-10-10T04:20:10.616Z,14.03
2022-10-10T04:22:37.978Z,13.60
2022-10-10T04:25:06.079Z,13.47
2022-10-10T04:27:33.474Z,13.40
2022-10-10T04:30:02.629Z,14.23
2022-10-10T04:32:30.042Z,13.83
2022-10-10T04:34:57.482Z,14.00
2022-10-10T04:37:24.906Z,13.57
2022-10-10T04:39:52.309Z,13.80
2022-10-10T04:42:19.721Z,14.10
2022-10-10T04:44:47.400Z,13.70
2022-10-10T04:47:16.158Z,13.90
2022-10-10T04:49:43.574Z,13.60
2022-10-10T04:52:11.153Z,13.70
2022-10-10T04:54:38.634Z,13.60
2022-10-10T04:57:06.263Z,14.60
2022-10-10T04:59:33.701Z,14.70
2022-10-10T05:02:02.045Z,14.13
2022-10-10T05:04:31.050Z,14.43
2022-10-10T05:06:58.460Z,13.90
2022-10-10T05:09:26.045Z,14.40
2022-10-10T05:11:53.419Z,15.57
2022-10-10T05:14:20.778Z,16.37
2022-10-10T05:16:48.153Z,15.93
2022-10-10T05:19:16.245Z,16.60
2022-10-10T05:21:44.990Z,16.63
2022-10-10T05:24:12.356Z,16.93
2022-10-10T05:26:43.107Z,16.47
2022-10-10T05:29:10.810Z,16.60
2022-10-10T05:31:38.253Z,16.87
2022-10-10T05:34:05.879Z,16.83
2022-10-10T05:36:33.618Z,15.87
2022-10-10T05:39:03.257Z,16.37
2022-10-10T05:41:30.680Z,16.30
2022-10-10T05:43:58.269Z,15.60
2022-10-10T05:46:27.352Z,15.23
2022-10-10T05:48:55.253Z,15.90
2022-10-10T05:51:22.691Z,15.13
2022-10-10T05:53:50.129Z,15.03
2022-10-10T05:56:19.189Z,14.30
2022-10-10T05:58:46.654Z,13.83
2022-10-10T06:01:14.161Z,14.87
2022-10-10T06:03:41.535Z,13.67
2022-10-10T06:06:09.010Z,13.70
2022-10-10T06:08:36.626Z,13.80
2022-10-10T06:11:05.779Z,14.30
2022-10-10T06:13:34.696Z,13.77
2022-10-10T06:16:02.106Z,13.70
2022-10-10T06:18:29.771Z,13.53
2022-10-10T06:21:02.190Z,13.43
2022-10-10T06:23:29.735Z,13.90
2022-10-10T06:25:57.194Z,13.47
2022-10-10T06:28:24.620Z,13.37
2022-10-10T06:30:53.566Z,13.30
2022-10-10T06:33:20.910Z,13.50
2022-10-10T06:35:49.460Z,12.90
2022-10-10T06:38:17.731Z,12.97
2022-10-10T06:40:45.975Z,12.47
2022-10-10T06:43:15.379Z,10.80
2022-10-10T06:45:44.485Z,10.10
2022-10-10T06:48:14.663Z,10.30
2022-10-10T06:50:42.089Z,10.83
2022-10-10T06:53:09.519Z,9.60
2022-10-10T06:55:36.971Z,11.30
2022-10-10T06:58:04.630Z,11.70
2022-10-10T07:00:32.073Z,14.27
2022-10-10T07:02:59.447Z,13.33
2022-10-10T07:05:28.324Z,14.83
2022-10-10T07:07:55.690Z,14.10
2022-10-10T07:10:23.113Z,14.23
2022-10-10T07:12:50.602Z,14.63
2022-10-10T07:15:18.075Z,14.33
2022-10-10T07:17:47.330Z,14.83
2022-10-10T07:20:18.007Z,14.90
2022-10-10T07:22:46.703Z,14.50
2022-10-10T07:25:14.086Z,14.20
2022-10-10T07:27:41.497Z,14.10
2022-10-10T07:30:09.908Z,14.60
2022-10-10T07:32:37.338Z,14.20
2022-10-10T07:35:05.224Z,14.30
2022-10-10T07:37:32.665Z,14.47
2022-10-10T07:40:01.447Z,14.10
2022-10-10T07:42:28.851Z,13.70
2022-10-10T07:44:56.248Z,13.93
2022-10-10T07:47:23.647Z,13.80
2022-10-10T07:49:51.195Z,14.20
2022-10-10T07:52:18.888Z,14.10
2022-10-10T07:54:46.487Z,13.73
2022-10-10T07:57:15.428Z,13.97
2022-10-10T07:59:45.603Z,14.37
2022-10-10T08:02:13.067Z,14.30
2022-10-10T08:04:40.761Z,14.63
2022-10-10T08:07:08.246Z,14.13
2022-10-10T08:09:35.685Z,14.83
2022-10-10T08:12:03.105Z,15.00
2022-10-10T08:14:31.823Z,14.80
2022-10-10T08:16:59.224Z,15.30
2022-10-10T08:19:26.618Z,14.50
2022-10-10T08:21:54.000Z,15.00
2022-10-10T08:24:21.446Z,14.53
2022-10-10T08:26:50.753Z,15.07
2022-10-10T08:29:18.591Z,14.47
2022-10-10T08:31:47.373Z,14.83
2022-10-10T08:34:14.795Z,13.77
2022-10-10T08:36:42.320Z,14.50
2022-10-10T08:39:10.981Z,14.43
2022-10-10T08:41:41.386Z,14.17
2022-10-10T08:44:15.629Z,14.77
2022-10-10T08:46:47.723Z,14.27
2022-10-10T08:49:22.297Z,15.17
2022-10-10T08:51:58.987Z,15.97
2022-10-10T08:54:26.905Z,14.87
2022-10-10T08:56:57.811Z,15.00
2022-10-10T08:59:27.796Z,15.40
2022-10-10T09:02:18.948Z,15.37
2022-10-10T09:04:48.959Z,14.97
2022-10-10T09:07:24.741Z,15.20
2022-10-10T09:09:57.402Z,15.40
2022-10-10T09:12:29.854Z,15.27
2022-10-10T09:15:02.646Z,15.57
2022-10-10T09:17:38.962Z,15.00
2022-10-10T09:20:19.756Z,14.70
2022-10-10T09:22:51.586Z,14.87
2022-10-10T09:25:22.548Z,14.70
2022-10-10T09:27:57.705Z,14.90
2022-10-10T09:30:25.313Z,14.70
2022-10-10T09:32:58.253Z,14.07
2022-10-10T09:35:27.717Z,15.20
2022-10-10T09:38:00.018Z,14.30
2022-10-10T09:40:30.239Z,14.40
2022-10-10T09:42:57.766Z,14.43
2022-10-10T09:45:28.771Z,14.50
2022-10-10T09:47:57.691Z,14.57
2022-10-10T09:50:25.649Z,14.40
2022-10-10T09:52:53.258Z,14.07
2022-10-10T09:55:26.964Z,14.70
2022-10-10T09:57:56.194Z,14.50
2022-10-10T10:00:35.217Z,14.77
2022-10-10T10:03:13.000Z,15.30
2022-10-10T10:05:42.076Z,14.37
2022-10-10T10:08:19.948Z,14.70
2022-10-10T10:10:47.399Z,15.27
2022-10-10T10:13:15.575Z,15.10
2022-10-10T10:15:49.021Z,14.83
2022-10-10T10:18:25.565Z,14.27
2022-10-10T10:20:55.738Z,14.83
2022-10-10T10:23:24.742Z,13.93
2022-10-10T10:26:02.070Z,14.77
2022-10-10T10:28:30.042Z,14.90
2022-10-10T10:30:58.733Z,14.20
2022-10-10T10:33:39.302Z,13.93
2022-10-10T10:36:15.155Z,14.40
2022-10-10T10:38:44.683Z,14.60
2022-10-10T10:41:19.557Z,14.57
2022-10-10T10:43:55.470Z,14.80
2022-10-10T10:46:31.305Z,14.67
2022-10-10T10:49:03.310Z,14.13
2022-10-10T10:51:53.545Z,13.90
2022-10-10T10:54:30.888Z,14.20
2022-10-10T10:57:06.627Z,14.47
2022-10-10T11:00:21.646Z,14.27
2022-10-10T11:02:55.334Z,13.80
2022-10-10T11:05:41.717Z,13.17
2022-10-10T11:08:29.153Z,13.87
2022-10-10T11:11:04.845Z,13.80
2022-10-10T11:13:37.621Z,14.17
2022-10-10T11:16:24.281Z,13.73
2022-10-10T11:19:08.031Z,13.90
2022-10-10T11:21:39.895Z,13.60
2022-10-10T11:24:11.074Z,14.10
2022-10-10T11:26:40.713Z,14.47
2022-10-10T11:29:12.784Z,13.67
2022-10-10T11:31:42.590Z,13.63
2022-10-10T11:34:15.202Z,14.50
2022-10-10T11:36:45.212Z,12.87
2022-10-10T11:39:16.062Z,13.53
2022-10-10T11:41:48.945Z,13.47
2022-10-10T11:44:20.082Z,13.33
2022-10-10T11:46:50.802Z,13.90
2022-10-10T11:49:23.164Z,13.40
2022-10-10T11:52:32.579Z,13.60
2022-10-10T11:55:05.259Z,13.27
2022-10-10T11:57:35.233Z,13.10
2022-10-10T12:00:05.687Z,14.00
2022-10-10T12:02:34.475Z,13.27
2022-10-10T12:05:01.987Z,13.10
2022-10-10T12:07:34.814Z,13.33
2022-10-10T12:10:07.655Z,13.23
2022-10-10T12:12:38.706Z,13.90
2022-10-10T12:15:10.111Z,13.50
2022-10-10T12:17:40.945Z,13.73
2022-10-10T12:20:11.128Z,14.07
2022-10-10T12:22:39.955Z,14.00
2022-10-10T12:25:22.671Z,13.83
2022-10-10T12:28:05.251Z,14.60
2022-10-10T12:30:32.782Z,14.80
2022-10-10T12:33:00.316Z,14.47
2022-10-10T12:35:30.991Z,14.60
2022-10-10T12:38:12.393Z,16.07
2022-10-10T12:41:18.463Z,15.87
2022-10-10T12:43:50.242Z,15.60
2022-10-10T12:46:29.540Z,15.90
2022-10-10T12:49:18.329Z,16.20
2022-10-10T12:51:46.654Z,15.90
2022-10-10T12:54:24.962Z,15.70
2022-10-10T12:56:59.420Z,15.80
2022-10-10T12:59:26.939Z,15.40
2022-10-10T13:01:57.484Z,15.80
2022-10-10T13:04:26.206Z,15.70
2022-10-10T13:06:55.265Z,15.80
2022-10-10T13:09:25.561Z,16.30
2022-10-10T13:11:58.451Z,15.97
2022-10-10T13:14:27.716Z,15.90
2022-10-10T13:16:55.506Z,16.07
2022-10-10T13:19:24.229Z,15.90
2022-10-10T13:21:53.354Z,15.80
2022-10-10T13:24:28.191Z,15.57
2022-10-10T13:26:55.848Z,15.53
2022-10-10T13:29:26.499Z,15.30
2022-10-10T13:31:55.997Z,15.93
2022-10-10T13:34:27.354Z,16.00
2022-10-10T13:36:57.113Z,15.63
2022-10-10T13:39:26.550Z,15.63
2022-10-10T13:41:55.218Z,15.93
2022-10-10T13:44:24.274Z,16.50
2022-10-10T13:46:52.040Z,15.83
2022-10-10T13:49:25.253Z,16.20
2022-10-10T13:52:02.899Z,15.27
2022-10-10T13:54:43.770Z,16.07
2022-10-10T13:57:19.796Z,16.07
2022-10-10T13:59:51.414Z,15.50
2022-10-10T14:02:25.180Z,15.43
2022-10-10T14:04:54.742Z,15.47
2022-10-10T14:07:24.729Z,15.47
2022-10-10T14:09:54.948Z,16.63
2022-10-10T14:12:27.112Z,15.70
2022-10-10T14:14:56.165Z,15.83
2022-10-10T14:17:23.767Z,15.50
2022-10-10T14:19:51.883Z,15.90
2022-10-10T14:22:19.650Z,15.33
2022-10-10T14:24:47.238Z,15.40
2022-10-10T14:27:24.027Z,16.17
2022-10-10T14:29:52.142Z,15.20
2022-10-10T14:32:19.969Z,15.50
2022-10-10T14:34:47.772Z,15.37
2022-10-10T14:37:18.833Z,15.70
2022-10-10T14:39:47.130Z,16.03
2022-10-10T14:42:16.081Z,15.87
2022-10-10T14:44:44.847Z,15.37
2022-10-10T14:47:17.036Z,16.00
2022-10-10T14:49:44.997Z,15.70
2022-10-10T14:52:12.764Z,15.40
2022-10-10T14:54:40.783Z,15.10
2022-10-10T14:57:10.250Z,15.70
2022-10-10T14:59:46.360Z,15.27
2022-10-10T15:02:19.617Z,15.23
2022-10-10T15:04:47.010Z,15.50
2022-10-10T15:07:15.334Z,15.80
2022-10-10T15:10:02.665Z,15.70
2022-10-10T15:12:31.031Z,15.47
2022-10-10T15:14:58.486Z,15.10
2022-10-10T15:17:27.323Z,15.43
2022-10-10T15:19:54.771Z,16.60
2022-10-10T15:22:22.234Z,15.60
2022-10-10T15:24:49.633Z,14.90
2022-10-10T15:27:17.273Z,15.60
2022-10-10T15:29:44.684Z,15.80
2022-10-10T15:32:12.096Z,15.40
2022-10-10T15:34:40.894Z,16.83
2022-10-10T15:37:10.393Z,16.07
2022-10-10T15:39:38.564Z,15.90
2022-10-10T15:42:12.667Z,14.37
2022-10-10T15:44:45.302Z,14.33
2022-10-10T15:47:12.848Z,15.67
2022-10-10T15:49:42.060Z,15.03
2022-10-10T15:52:09.864Z,15.47
2022-10-10T15:54:37.326Z,15.00
2022-10-10T15:57:04.897Z,15.60
2022-10-10T15:59:32.741Z,15.60
2022-10-10T16:02:00.147Z,15.00
2022-10-10T16:04:27.652Z,15.33
2022-10-10T16:09:43.870Z,15.60
2022-10-10T16:12:11.374Z,15.93
2022-10-10T16:14:38.778Z,15.57
2022-10-10T16:17:06.244Z,15.87
2022-10-10T16:19:33.638Z,15.73
2022-10-10T16:22:02.407Z,15.87
2022-10-10T16:24:30.544Z,15.73
2022-10-10T16:26:59.314Z,15.63
2022-10-10T16:29:26.717Z,15.67
2022-10-10T16:31:54.153Z,15.30
2022-10-10T16:34:21.562Z,16.37
2022-10-10T16:36:49.029Z,16.70
2022-10-10T16:39:17.763Z,16.57
2022-10-10T16:41:49.148Z,19.90
2022-10-10T16:44:17.054Z,22.73
2022-10-10T16:46:44.627Z,22.10
2022-10-10T16:49:13.361Z,22.50
2022-10-10T16:51:40.831Z,21.93
2022-10-10T16:54:08.642Z,21.63
2022-10-10T16:56:37.374Z,22.17
2022-10-10T16:59:06.201Z,21.43
2022-10-10T17:01:34.163Z,21.47
2022-10-10T17:04:02.934Z,19.87
2022-10-10T17:06:35.288Z,19.33
2022-10-10T17:09:03.097Z,18.60
2022-10-10T17:11:30.470Z,18.53
2022-10-10T17:13:59.273Z,18.00
2022-10-10T17:19:15.868Z,17.50
2022-10-10T17:21:43.275Z,18.30
2022-10-10T17:24:10.725Z,17.33
2022-10-10T17:26:38.132Z,17.50
2022-10-10T17:29:06.817Z,16.73
2022-10-10T17:31:34.178Z,17.40
2022-10-10T17:34:01.536Z,17.17
2022-10-10T17:36:29.485Z,16.87
2022-10-10T17:38:57.154Z,16.50
2022-10-10T17:41:24.855Z,15.73
2022-10-10T17:43:52.346Z,15.63
2022-10-10T17:46:34.465Z,16.40
2022-10-10T17:49:03.398Z,15.90
2022-10-10T17:51:30.821Z,14.70
2022-10-10T17:53:59.697Z,15.73
2022-10-10T17:56:27.125Z,15.10
2022-10-10T17:58:54.672Z,16.20
2022-10-10T18:01:23.765Z,16.10
2022-10-10T18:03:51.401Z,15.80
2022-10-10T18:06:23.060Z,15.83
2022-10-10T18:08:51.585Z,16.00
2022-10-10T18:11:21.340Z,16.17
2022-10-10T18:13:48.987Z,16.23
2022-10-10T18:16:17.973Z,16.37
2022-10-10T18:18:51.110Z,17.10
2022-10-10T18:21:20.970Z,17.23
2022-10-10T18:23:48.858Z,15.20
2022-10-10T18:26:19.031Z,14.00
2022-10-10T18:28:46.554Z,14.00
2022-10-10T18:31:15.840Z,13.90
2022-10-10T18:33:44.676Z,13.80
2022-10-10T18:36:15.421Z,14.37
2022-10-10T18:38:42.855Z,13.63
2022-10-10T18:41:12.273Z,13.70
2022-10-10T18:43:40.606Z,14.33
2022-10-10T18:46:09.573Z,14.30
2022-10-10T18:48:38.613Z,14.07
2022-10-10T18:51:08.172Z,14.60
2022-10-10T18:53:37.961Z,15.10
2022-10-10T18:56:06.373Z,14.57
2022-10-10T18:58:34.762Z,15.27
2022-10-10T19:01:05.065Z,15.93
2022-10-10T19:03:32.716Z,16.03
2022-10-10T19:06:01.570Z,15.47
2022-10-10T19:08:31.494Z,15.40
2022-10-10T19:11:00.429Z,14.47
2022-10-10T19:13:28.462Z,14.60
2022-10-10T19:15:55.978Z,14.37
2022-10-10T19:18:23.756Z,14.63
2022-10-10T19:20:51.180Z,15.23
2022-10-10T19:23:19.615Z,15.00
2022-10-10T19:25:47.085Z,15.10
2022-10-10T19:28:15.837Z,14.33
2022-10-10T19:30:44.642Z,14.47
2022-10-10T19:33:12.759Z,14.43
2022-10-10T19:35:42.142Z,13.80
2022-10-10T19:38:11.105Z,14.13
2022-10-10T19:40:44.517Z,13.43
2022-10-10T19:43:12.077Z,14.03
2022-10-10T19:45:44.694Z,14.23
2022-10-10T19:48:12.033Z,13.67
2022-10-10T19:50:40.670Z,13.67
2022-10-10T19:53:09.892Z,13.70
2022-10-10T19:55:37.989Z,13.33
2022-10-10T19:58:05.550Z,13.40
2022-10-10T20:00:33.246Z,12.70
2022-10-10T20:03:01.923Z,14.30
2022-10-10T20:05:29.394Z,13.87
2022-10-10T20:07:56.748Z,13.80
2022-10-10T20:10:24.689Z,13.80
2022-10-10T20:12:52.473Z,13.77
2022-10-10T20:15:19.841Z,13.53
2022-10-10T20:17:47.342Z,14.37
2022-10-10T20:20:16.022Z,13.97
2022-10-10T20:22:44.461Z,13.53
2022-10-10T20:25:12.509Z,14.47
2022-10-10T20:27:39.949Z,14.07
2022-10-10T20:30:08.391Z,14.60
2022-10-10T20:32:35.930Z,14.30
2022-10-10T20:35:03.352Z,14.17
2022-10-10T20:37:31.994Z,14.93
2022-10-10T20:39:59.492Z,15.17
2022-10-10T20:42:26.874Z,15.57
2022-10-10T20:44:54.582Z,14.80
2022-10-10T20:47:21.918Z,15.33
2022-10-10T20:49:49.299Z,16.40
2022-10-10T20:52:16.666Z,14.67
2022-10-10T20:54:45.554Z,15.00
2022-10-10T20:57:12.911Z,14.20
2022-10-10T20:59:40.312Z,14.90
2022-10-10T21:02:07.777Z,14.50
2022-10-10T21:04:35.266Z,13.93
2022-10-10T21:07:02.801Z,14.97
2022-10-10T21:09:30.214Z,15.23
2022-10-10T21:11:58.969Z,14.53
2022-10-10T21:14:26.514Z,14.77
2022-10-10T21:16:54.392Z,14.87
2022-10-10T21:19:22.039Z,15.13
2022-10-10T21:21:49.373Z,14.93
2022-10-10T21:24:16.818Z,14.47
2022-10-10T21:26:45.298Z,14.17
2022-10-10T21:29:13.974Z,14.30
2022-10-10T21:31:41.676Z,13.90
2022-10-10T21:34:13.209Z,13.93
2022-10-10T21:36:40.907Z,13.50
2022-10-10T21:39:08.297Z,14.53
2022-10-10T21:41:36.203Z,13.00
2022-10-10T21:44:03.809Z,13.73
2022-10-10T21:46:36.544Z,13.33
2022-10-10T21:49:05.709Z,13.87
2022-10-10T21:51:36.126Z,14.33
2022-10-10T21:54:03.548Z,13.90
2022-10-10T21:56:30.885Z,14.30
2022-10-10T21:59:01.218Z,14.23
2022-10-10T22:01:29.303Z,13.70
2022-10-10T22:03:58.125Z,13.67
2022-10-10T22:06:25.908Z,14.10
2022-10-10T22:08:56.887Z,14.57
2022-10-10T22:11:26.050Z,14.47
2022-10-10T22:13:53.933Z,14.53
2022-10-10T22:16:21.474Z,14.80
2022-10-10T22:18:48.849Z,14.47
2022-10-10T22:21:17.654Z,14.30
2022-10-10T22:23:45.601Z,15.63
2022-10-10T22:26:14.641Z,15.20
2022-10-10T22:28:42.933Z,15.73
2022-10-10T22:31:11.988Z,15.93
2022-10-10T22:33:39.757Z,14.80
2022-10-10T22:36:08.454Z,15.53
2022-10-10T22:38:39.553Z,15.63
2022-10-10T22:41:07.121Z,16.57
2022-10-10T22:43:34.689Z,15.70
2022-10-10T22:46:05.567Z,17.00
2022-10-10T22:48:33.341Z,17.10
2022-10-10T22:51:02.661Z,16.87
2022-10-10T22:53:30.534Z,17.17
2022-10-10T22:55:59.219Z,17.00
2022-10-10T22:58:26.639Z,18.37
2022-10-10T23:00:54.394Z,18.33
2022-10-10T23:03:21.856Z,17.77
2022-10-10T23:05:49.180Z,17.87
2022-10-10T23:08:16.574Z,18.17
2022-10-10T23:10:44.473Z,18.03
2022-10-10T23:13:13.296Z,18.47
2022-10-10T23:15:40.669Z,17.83
2022-10-10T23:18:08.174Z,18.23
2022-10-10T23:20:35.958Z,18.77
2022-10-10T23:23:03.348Z,17.23
2022-10-10T23:25:30.885Z,17.90
2022-10-10T23:27:58.277Z,18.83
2022-10-10T23:30:27.250Z,17.53
2022-10-10T23:32:54.649Z,18.17
2022-10-10T23:35:22.153Z,18.33
2022-10-10T23:37:49.649Z,18.20
2022-10-10T23:40:17.274Z,17.97
2022-10-10T23:42:44.781Z,19.23
2022-10-10T23:45:12.136Z,18.07
2022-10-10T23:47:40.821Z,17.43
2022-10-10T23:50:09.005Z,18.47
2022-10-10T23:52:36.449Z,18.03
2022-10-10T23:55:03.958Z,18.20
2022-10-10T23:57:31.430Z,16.97
2022-10-10T23:59:58.943Z,17.77
